Terminal Aerodrome Forecast
Issued by NWS

Home | Current Version | Previous Version | Text Only | Print | Product List | Glossary On
Versions: 1 2 3 4 5 6 7 8 9 10 11 12 13 14 15 16 17 18
889
FTUS44 KTSA 041120
TAFFYV
TAF
KFYV 041120Z 0412/0512 20006KT P6SM SKC
     FM041500 32011G20KT P6SM SKC
     FM050100 VRB03KT P6SM SKC=

USA.gov is the U.S. government's official web portal to all federal, state and local government web resources and services.